Capitol Logistics 7347

Operating for MZN



KAUS
Austin-Bergstrom International Airport
Austin, Texas
KRIV
March Air Reserve Base
Riverside, California

Activity Log

Date Flight Route Aircraft Duration
No Flights Yet

Route Details

Aircraft Information
Primary: Boeing 737-800BCF
Backup: Boeing 757-200SF
Route Data
Distance: 1021nm
Duration: 2h 50m
Recm'd Route: MUCKY2 MUCKY JCT J2 FST EWM J184 BXK DECAS TRM ARKOE1
Origin Wx: KAUS 180253Z 35009KT 10SM OVC110 13/06 A3013 RMK AO2 SLP202 T01280061 53024
Dest. Wx: KRIV 180258Z AUTO 29004KT 10SM CLR 18/09 A2993 RMK AO2 SLP131 T01820090 52016
Notes: